Time;durP1;ratioP1;P1;durP2;ratioP2;P2;SDS_P1;SDS_P2;PMS_P1;PMS_P2;Temp;Humidity;BMP_temperature;BMP_pressure;BME280_temperature;BME280_humidity;BME280_pressure;Samples;Min_cycle;Max_cycle;Signal;HPM_P1;HPM_P2
2021/01/19 00:00:10;;;;;;;49.30;22.37;;;;;;;-11.98;70.91;99947.46;1722784;81;21157;-79
2021/01/19 00:02:41;;;;;;;52.83;22.73;;;;;;;-12.05;70.74;99944.92;1714861;81;21139;-78
2021/01/19 00:05:10;;;;;;;56.30;23.90;;;;;;;-12.06;70.98;99947.19;1718007;83;21113;-79
2021/01/19 00:07:38;;;;;;;49.77;22.47;;;;;;;-12.02;70.99;99948.66;1714806;81;21151;-78
2021/01/19 00:10:11;;;;;;;48.25;21.62;;;;;;;-12.00;70.92;99944.95;1719989;81;21612;-79
2021/01/19 00:12:39;;;;;;;47.33;21.17;;;;;;;-11.96;70.83;99948.18;1719790;81;21166;-73
2021/01/19 00:15:08;;;;;;;48.90;20.77;;;;;;;-11.98;70.89;99931.63;1723664;81;21125;-73
2021/01/19 00:17:35;;;;;;;51.33;21.73;;;;;;;-11.92;70.92;99937.78;1735674;81;21161;-74
2021/01/19 00:20:04;;;;;;;49.08;20.77;;;;;;;-11.90;70.58;99936.71;1715105;82;21112;-73
2021/01/19 00:22:32;;;;;;;47.97;20.77;;;;;;;-11.87;70.47;99940.92;1710356;81;21125;-74
2021/01/19 00:25:01;;;;;;;45.97;19.93;;;;;;;-11.87;70.46;99935.17;1740768;82;21133;-74
2021/01/19 00:27:29;;;;;;;45.23;21.57;;;;;;;-11.93;70.31;99933.45;1745744;81;21406;-79
2021/01/19 00:29:57;;;;;;;52.25;21.15;;;;;;;-11.96;70.41;99936.31;1722512;81;21160;-72
2021/01/19 00:32:25;;;;;;;50.28;20.70;;;;;;;-11.92;70.62;99936.47;1727659;81;21129;-78
2021/01/19 00:34:52;;;;;;;48.95;20.52;;;;;;;-11.81;70.64;99937.80;1724602;81;21143;-78
2021/01/19 00:37:20;;;;;;;52.33;21.65;;;;;;;-11.69;70.33;99932.94;1720740;82;21157;-73
2021/01/19 00:39:48;;;;;;;58.80;22.35;;;;;;;-11.59;69.98;99924.65;1715874;81;21132;-73
2021/01/19 00:42:16;;;;;;;51.50;22.22;;;;;;;-11.48;69.42;99928.61;1708245;82;21143;-72
2021/01/19 00:44:44;;;;;;;51.80;21.45;;;;;;;-11.59;68.93;99919.38;1685803;83;21256;-71
2021/01/19 00:47:12;;;;;;;;;;;;;;;-11.79;69.41;99925.36;1724531;81;21147;-71
2021/01/19 00:49:41;;;;;;;54.33;22.07;;;;;;;-11.95;69.69;99926.13;1739598;82;20211;-77
2021/01/19 00:52:09;;;;;;;57.83;24.35;;;;;;;-12.08;70.26;99933.27;1733104;81;21152;-72
2021/01/19 00:54:37;;;;;;;58.40;22.00;;;;;;;-11.98;70.53;99926.36;1740134;81;21543;-71
2021/01/19 00:57:05;;;;;;;59.47;23.53;;;;;;;-11.83;70.21;99930.48;1740928;82;21151;-79
2021/01/19 00:59:34;;;;;;;65.57;24.40;;;;;;;-11.75;69.80;99926.80;1712161;81;21563;-72
2021/01/19 01:02:02;;;;;;;59.77;24.52;;;;;;;-11.68;69.71;99920.90;1722596;82;21162;-77
2021/01/19 01:04:29;;;;;;;60.15;24.35;;;;;;;-11.64;69.46;99928.12;1724214;83;21180;-73
2021/01/19 01:06:57;;;;;;;59.15;25.08;;;;;;;-11.69;69.38;99928.98;1721166;80;21225;-77
2021/01/19 01:09:26;;;;;;;63.30;24.10;;;;;;;-11.84;69.22;99926.18;1725706;83;21093;-73
2021/01/19 01:11:54;;;;;;;57.55;24.60;;;;;;;-11.88;69.53;99926.88;1719873;81;21192;-73
2021/01/19 01:14:22;;;;;;;60.40;23.98;;;;;;;-11.84;69.57;99927.50;1722655;83;21581;-77
2021/01/19 01:16:50;;;;;;;58.23;24.10;;;;;;;-12.02;69.60;99920.96;1718089;81;21156;-78
2021/01/19 01:19:18;;;;;;;62.50;26.20;;;;;;;-12.18;70.08;99924.36;1724177;83;21164;-75
2021/01/19 01:21:45;;;;;;;58.73;23.57;;;;;;;-12.32;70.30;99924.89;1727530;81;21615;-78
2021/01/19 01:24:13;;;;;;;57.73;24.67;;;;;;;-12.40;70.87;99931.70;1739462;82;21166;-78
2021/01/19 01:26:41;;;;;;;59.58;23.30;;;;;;;-12.33;70.98;99928.50;1710631;81;21104;-79
2021/01/19 01:29:09;;;;;;;56.10;24.98;;;;;;;-12.27;70.63;99930.33;1754260;82;21129;-71
2021/01/19 01:31:37;;;;;;;58.00;24.02;;;;;;;-12.39;70.63;99931.58;1712757;81;21282;-79
2021/01/19 01:34:04;;;;;;;64.40;25.25;;;;;;;-12.33;70.91;99931.61;1754671;82;21545;-73
2021/01/19 01:36:40;;;;;;;57.27;23.83;;;;;;;-12.40;70.63;99922.48;1724166;83;21160;-71
2021/01/19 01:39:07;;;;;;;57.37;24.73;;;;;;;-12.39;71.03;99922.35;1752259;82;21155;-77
2021/01/19 01:41:35;;;;;;;54.55;23.40;;;;;;;-12.27;70.76;99915.83;1745788;82;21608;-72
2021/01/19 01:44:03;;;;;;;60.03;23.57;;;;;;;-12.24;70.52;99916.92;1742311;80;21270;-78
2021/01/19 01:46:36;;;;;;;;;;;;;;;-12.16;70.23;99915.85;1743490;82;21139;-71
2021/01/19 01:49:04;;;;;;;65.43;25.53;;;;;;;-12.06;69.96;99919.48;1741011;80;20194;-77
2021/01/19 01:51:33;;;;;;;59.07;23.97;;;;;;;-12.00;69.74;99920.36;1741262;82;21147;-70
2021/01/19 01:54:00;;;;;;;;;;;;;;;-11.96;69.74;99921.80;1748309;80;21159;-71
2021/01/19 01:56:28;;;;;;;62.33;24.63;;;;;;;-11.87;69.19;99923.77;1741006;82;20521;-77
2021/01/19 01:58:56;;;;;;;63.25;24.50;;;;;;;-11.89;69.11;99917.27;1745309;80;21236;-76
2021/01/19 02:01:24;;;;;;;58.42;24.05;;;;;;;-11.90;69.13;99923.99;1752377;82;21173;-70
2021/01/19 02:03:54;;;;;;;60.65;24.87;;;;;;;-12.02;69.19;99923.59;1752400;80;21114;-71
2021/01/19 02:06:22;;;;;;;62.57;25.63;;;;;;;-12.23;69.31;99926.50;1751789;82;21549;-71
2021/01/19 02:09:06;;;;;;;;;;;;;;;-12.24;69.96;99923.52;1729134;80;21696;-75
2021/01/19 02:11:50;;;;;;;66.40;27.83;;;;;;;-12.14;69.73;99927.97;1689030;82;20156;-71
2021/01/19 02:14:32;;;;;;;69.57;27.93;;;;;;;-12.09;69.65;99927.66;1742938;80;21147;-78
2021/01/19 02:17:25;;;;;;;65.00;26.60;;;;;;;-12.26;69.66;99925.40;1752262;82;21141;-75
2021/01/19 02:20:35;;;;;;;66.50;28.37;;;;;;;-12.33;70.13;99930.30;1700730;81;21200;-70
2021/01/19 02:23:24;;;;;;;66.40;25.90;;;;;;;-12.45;70.21;99929.41;1719934;80;21104;-71
2021/01/19 02:26:12;;;;;;;72.47;28.63;;;;;;;-12.55;70.78;99932.81;1715029;80;21160;-71
2021/01/19 02:28:51;;;;;;;67.57;26.77;;;;;;;-12.72;71.06;99918.20;1715437;81;21223;-72
2021/01/19 02:32:08;;;;;;;64.55;27.32;;;;;;;-12.72;71.44;99922.16;1691229;82;21129;-73
2021/01/19 02:35:12;;;;;;;63.97;26.43;;;;;;;-12.71;71.34;99912.00;1740642;82;21138;-73
2021/01/19 02:37:48;;;;;;;59.77;25.20;;;;;;;-12.72;71.74;99910.80;1668274;84;21116;-71
2021/01/19 02:40:18;;;;;;;73.20;27.10;;;;;;;-12.64;71.60;99912.38;1688768;83;21146;-79
2021/01/19 02:43:09;;;;;;;66.87;25.67;;;;;;;-12.50;71.28;99915.72;1684054;84;21514;-78
2021/01/19 02:45:38;;;;;;;58.73;25.03;;;;;;;-12.42;70.97;99914.66;1691100;82;21234;-79
2021/01/19 02:48:07;;;;;;;67.30;25.37;;;;;;;-12.32;70.96;99909.58;1717239;83;21171;-79
2021/01/19 02:50:36;;;;;;;59.60;24.40;;;;;;;-12.34;70.91;99910.99;1710485;81;21100;-80
2021/01/19 02:53:03;;;;;;;;;;;;;;;-12.28;70.72;99905.75;1717575;81;21155;-78
2021/01/19 02:55:31;;;;;;;61.42;25.08;;;;;;;-12.20;70.47;99909.14;1729880;83;20157;-77
2021/01/19 02:58:26;;;;;;;57.53;24.15;;;;;;;-12.12;70.30;99912.05;1714506;81;21106;-80
2021/01/19 03:01:12;;;;;;;55.73;23.73;;;;;;;-12.10;70.18;99911.45;1701399;82;21177;-79
2021/01/19 03:03:40;;;;;;;58.93;23.50;;;;;;;-12.14;69.68;99916.10;1718020;81;21137;-80
2021/01/19 03:06:13;;;;;;;60.50;23.87;;;;;;;-12.25;70.05;99916.08;1716157;83;21144;-74
2021/01/19 03:08:43;;;;;;;63.83;24.77;;;;;;;-12.21;70.28;99916.20;1712839;81;21157;-75
2021/01/19 03:11:16;;;;;;;60.97;25.97;;;;;;;-12.25;70.09;99913.91;1709711;83;21155;-75
2021/01/19 03:13:45;;;;;;;65.70;25.97;;;;;;;-12.37;70.12;99915.16;1709095;82;21260;-79
2021/01/19 03:16:15;;;;;;;61.87;24.80;;;;;;;-12.45;70.35;99920.19;1709582;83;21298;-81
2021/01/19 03:18:45;;;;;;;61.90;25.30;;;;;;;-12.55;70.54;99919.17;1718085;82;21134;-79
2021/01/19 03:21:13;;;;;;;65.03;25.50;;;;;;;-12.61;70.69;99920.07;1710099;82;21209;-76
2021/01/19 03:23:40;;;;;;;60.33;24.25;;;;;;;-12.69;70.89;99928.53;1716384;81;21117;-79
2021/01/19 03:26:09;;;;;;;61.33;25.60;;;;;;;-12.80;71.18;99928.48;1752713;80;21129;-75
2021/01/19 03:28:37;;;;;;;55.75;24.47;;;;;;;-12.83;71.21;99928.69;1715633;81;21129;-72
2021/01/19 03:31:11;;;;;;;56.77;23.60;;;;;;;-12.88;71.21;99932.59;1724332;83;21180;-77
2021/01/19 03:33:40;;;;;;;61.67;24.70;;;;;;;-12.90;71.59;99930.09;1725048;80;21121;-76
2021/01/19 03:36:08;;;;;;;64.13;24.93;;;;;;;-12.83;71.55;99927.38;1745053;82;21161;-75
2021/01/19 03:38:38;;;;;;;60.37;24.97;;;;;;;-12.83;71.19;99931.33;1736111;80;21251;-74
2021/01/19 03:41:06;;;;;;;60.47;25.17;;;;;;;-12.90;71.30;99932.72;1722728;83;21595;-81
2021/01/19 03:43:36;;;;;;;65.47;26.15;;;;;;;-12.98;71.45;99940.31;1742789;80;21181;-78
2021/01/19 03:46:12;;;;;;;59.23;24.63;;;;;;;-13.04;71.57;99941.59;1679497;84;21248;-78
2021/01/19 03:49:02;;;;;;;65.57;25.47;;;;;;;-13.11;71.63;99944.32;1724094;81;21136;-79
2021/01/19 03:52:20;;;;;;;56.47;23.80;;;;;;;-13.11;71.71;99946.11;1626227;86;21261;-78
2021/01/19 03:54:48;;;;;;;57.35;22.85;;;;;;;-13.07;71.50;99940.51;1667285;85;21221;-72
2021/01/19 03:57:16;;;;;;;52.40;21.82;;;;;;;-13.07;71.49;99947.56;1653665;86;21212;-80
2021/01/19 03:59:43;;;;;;;51.85;19.95;;;;;;;-12.97;71.26;99955.16;1643479;84;21217;-79
2021/01/19 04:02:11;;;;;;;51.48;19.57;;;;;;;-13.02;70.44;99946.27;1649498;86;21202;-79
2021/01/19 04:04:40;;;;;;;52.07;20.83;;;;;;;-13.12;70.98;99947.04;1657818;86;21739;-73
2021/01/19 04:07:08;;;;;;;53.07;20.60;;;;;;;-13.10;71.01;99946.45;1648991;84;21228;-72
2021/01/19 04:09:36;;;;;;;51.45;20.97;;;;;;;-13.14;70.84;99939.73;1655543;84;21247;-75
2021/01/19 04:12:05;;;;;;;44.93;18.87;;;;;;;-13.08;70.99;99938.81;1650259;84;21690;-72
2021/01/19 04:14:35;;;;;;;48.83;19.23;;;;;;;-12.98;70.54;99931.10;1657487;84;21571;-75
2021/01/19 04:17:02;;;;;;;50.67;20.68;;;;;;;-12.90;70.42;99932.72;1646317;85;21171;-74
2021/01/19 04:19:30;;;;;;;49.75;19.67;;;;;;;-12.90;70.02;99927.45;1657553;86;21902;-72
2021/01/19 04:21:58;;;;;;;47.30;19.67;;;;;;;-12.87;70.09;99928.52;1662808;83;21163;-78
2021/01/19 04:24:26;;;;;;;49.13;18.55;;;;;;;-12.81;69.79;99930.73;1647528;84;21160;-72
2021/01/19 04:26:53;;;;;;;47.17;18.70;;;;;;;-12.85;69.63;99929.28;1657589;85;21192;-71
2021/01/19 04:29:21;;;;;;;54.42;19.12;;;;;;;-12.85;69.46;99935.88;1637103;85;21151;-77
2021/01/19 04:31:49;;;;;;;52.55;20.85;;;;;;;-12.80;69.42;99942.13;1663595;84;21206;-72
2021/01/19 04:34:16;;;;;;;48.38;18.05;;;;;;;-12.75;68.93;99948.75;1683492;83;21116;-72
2021/01/19 04:36:44;;;;;;;47.75;19.87;;;;;;;-12.71;68.71;99938.34;1713395;81;21583;-72
2021/01/19 04:39:12;;;;;;;44.10;18.57;;;;;;;-12.72;68.44;99936.66;1722933;82;21187;-79
2021/01/19 04:41:40;;;;;;;47.63;19.50;;;;;;;-12.76;68.45;99941.79;1709490;84;21149;-71
2021/01/19 04:44:08;;;;;;;48.60;18.32;;;;;;;-12.77;68.27;99945.86;1709224;82;21598;-78
2021/01/19 04:46:36;;;;;;;47.43;18.23;;;;;;;-12.81;68.09;99943.91;1725401;83;21156;-72
2021/01/19 04:49:04;;;;;;;44.95;18.17;;;;;;;-12.86;68.12;99943.86;1683470;83;21220;-76
2021/01/19 04:51:34;;;;;;;46.63;19.23;;;;;;;-12.92;68.11;99939.86;1733832;82;21576;-71
2021/01/19 04:54:07;;;;;;;50.47;19.83;;;;;;;-12.96;68.27;99947.63;1718519;80;21375;-79
2021/01/19 04:56:39;;;;;;;52.53;19.23;;;;;;;-12.98;68.31;99950.85;1735399;82;21113;-72
2021/01/19 04:59:12;;;;;;;47.87;19.40;;;;;;;-13.01;68.47;99952.38;1723178;80;21233;-76
2021/01/19 05:02:17;;;;;;;50.03;19.77;;;;;;;-13.03;68.44;99956.92;1688056;83;21123;-71
2021/01/19 05:04:50;;;;;;;52.17;20.57;;;;;;;-13.03;68.32;99951.65;1749873;80;21156;-71
2021/01/19 05:07:33;;;;;;;58.67;21.70;;;;;;;-13.25;68.21;99955.42;1732085;82;21227;-78
2021/01/19 05:10:23;;;;;;;54.60;20.77;;;;;;;-13.53;68.82;99953.03;1715496;80;21542;-76
2021/01/19 05:12:51;;;;;;;61.00;23.13;;;;;;;-13.70;69.27;99955.00;1715119;84;21149;-75
2021/01/19 05:15:20;;;;;;;51.10;21.73;;;;;;;-13.85;69.80;99951.23;1657817;83;21137;-71
2021/01/19 05:17:53;;;;;;;67.53;23.80;;;;;;;-13.88;70.03;99961.49;1716277;83;21144;-76
2021/01/19 05:20:19;;;;;;;57.37;23.03;;;;;;;-13.93;69.98;99963.59;1726010;80;21247;-72
2021/01/19 05:22:47;;;;;;;61.67;24.53;;;;;;;-13.96;70.29;99963.78;1691397;84;21581;-72
2021/01/19 05:25:15;;;;;;;55.20;24.43;;;;;;;-14.02;70.30;99964.20;1726831;80;21133;-82
2021/01/19 05:27:43;;;;;;;;;;;;;;;-14.09;70.27;99964.25;1747332;82;21157;-78
2021/01/19 05:30:12;;;;;;;55.60;23.15;;;;;;;-14.18;70.84;99966.15;1726025;80;20530;-69
2021/01/19 05:32:42;;;;;;;62.03;24.87;;;;;;;-14.18;70.76;99973.19;1726902;82;21232;-74
2021/01/19 05:35:17;;;;;;;62.73;25.13;;;;;;;-14.13;70.79;99971.95;1712085;81;21123;-76
2021/01/19 05:37:58;;;;;;;62.07;23.73;;;;;;;-14.08;70.63;99976.43;1717869;83;21259;-76
2021/01/19 05:40:27;;;;;;;59.43;23.83;;;;;;;-14.06;70.55;99984.23;1723032;81;21556;-77
2021/01/19 05:42:55;;;;;;;64.97;22.97;;;;;;;-14.04;70.49;99980.56;1727951;82;21222;-75
2021/01/19 05:45:23;;;;;;;57.40;22.82;;;;;;;-14.01;70.41;99984.28;1711057;81;21180;-81
2021/01/19 05:47:50;;;;;;;52.35;21.35;;;;;;;-13.99;70.30;99988.14;1712289;83;21198;-73
2021/01/19 05:50:18;;;;;;;59.60;22.02;;;;;;;-14.07;70.09;99999.16;1711805;82;21140;-73
2021/01/19 05:52:46;;;;;;;;;;;;;;;-14.21;70.04;99993.95;1742828;80;21579;-76
2021/01/19 05:55:14;;;;;;;53.38;19.40;;;;;;;-14.27;70.17;99993.05;1743078;80;20229;-73
2021/01/19 05:57:42;;;;;;;51.05;21.50;;;;;;;-14.24;70.24;99998.08;1725872;80;21238;-73
2021/01/19 06:00:11;;;;;;;55.90;22.37;;;;;;;-14.24;70.20;99995.95;1725791;81;21151;-75
2021/01/19 06:02:42;;;;;;;56.77;21.67;;;;;;;-14.27;70.13;99988.61;1698318;82;21125;-75
2021/01/19 06:05:15;;;;;;;58.77;22.43;;;;;;;-14.31;69.95;99987.63;1726970;81;21152;-74
2021/01/19 06:07:48;;;;;;;53.53;22.33;;;;;;;-14.31;70.39;99983.69;1724415;80;21134;-74
2021/01/19 06:10:18;;;;;;;59.00;23.73;;;;;;;-14.19;70.37;99985.52;1724379;82;21246;-75
2021/01/19 06:12:46;;;;;;;65.43;23.67;;;;;;;-14.07;70.19;99990.43;1722782;80;21141;-78
2021/01/19 06:15:14;;;;;;;60.80;24.35;;;;;;;-13.96;69.64;99991.89;1698407;82;21575;-73
2021/01/19 06:23:05;;;;;;;60.97;24.27;;;;;;;-14.09;69.86;100008.09;1809111;77;22159;-75
2021/01/19 06:25:33;;;;;;;57.15;23.27;;;;;;;-14.11;69.85;100009.98;1740481;82;21197;-80
2021/01/19 06:28:11;;;;;;;62.17;24.18;;;;;;;-14.04;69.93;100015.21;1735089;81;21141;-74
2021/01/19 06:30:40;;;;;;;60.53;24.90;;;;;;;-13.94;69.75;100016.30;1751364;81;21185;-75
2021/01/19 06:33:08;;;;;;;58.30;24.03;;;;;;;-13.89;69.15;100020.31;1745116;80;21676;-76
2021/01/19 06:35:40;;;;;;;66.62;24.43;;;;;;;-13.81;69.28;100027.20;1699023;83;21144;-76
2021/01/19 06:38:09;;;;;;;62.23;24.77;;;;;;;-13.75;69.14;100021.55;1725981;81;21153;-74
2021/01/19 06:40:36;;;;;;;;;;;;;;;-13.62;69.11;100022.42;1725303;81;21536;-80
2021/01/19 06:43:05;;;;;;;59.98;22.73;;;;;;;-13.51;68.36;100024.81;1739832;82;20178;-80
2021/01/19 06:45:33;;;;;;;58.30;23.47;;;;;;;-13.61;67.75;100029.35;1724142;82;21137;-75
2021/01/19 06:48:02;;;;;;;65.10;24.43;;;;;;;-13.73;68.35;100030.64;1745650;82;21141;-74
2021/01/19 06:50:38;;;;;;;61.43;23.63;;;;;;;-13.71;68.62;100042.75;1744881;80;21553;-77
2021/01/19 06:53:34;;;;;;;58.23;25.23;;;;;;;-13.63;68.75;100032.56;1745184;81;21130;-75
2021/01/19 06:56:14;;;;;;;57.47;23.93;;;;;;;-13.53;68.75;100035.42;1728035;80;21140;-83
2021/01/19 06:58:59;;;;;;;63.07;26.20;;;;;;;-13.37;68.47;100036.55;1728725;82;21148;-72
2021/01/19 07:01:28;;;;;;;71.77;26.40;;;;;;;-13.31;68.31;100038.78;1716443;80;21180;-78
2021/01/19 07:04:26;;;;;;;59.57;23.83;;;;;;;-13.23;68.06;100037.30;1732697;82;21168;-76
2021/01/19 07:07:06;;;;;;;57.40;23.40;;;;;;;-13.17;67.67;100034.26;1715087;83;21235;-84
2021/01/19 07:10:07;;;;;;;57.63;23.03;;;;;;;-13.14;67.19;100037.16;1771679;80;21274;-79
2021/01/19 07:13:00;;;;;;;60.10;23.53;;;;;;;-13.14;66.38;100039.79;1778961;79;21156;-76
2021/01/19 07:16:07;;;;;;;55.63;23.37;;;;;;;-13.21;66.93;100041.16;1782117;78;21764;-76
2021/01/19 07:18:58;;;;;;;59.50;22.93;;;;;;;-13.20;67.26;100026.56;1780906;79;21120;-79
2021/01/19 07:21:41;;;;;;;60.43;24.17;;;;;;;-13.01;67.26;100031.39;1782881;78;21287;-79
2021/01/19 07:24:21;;;;;;;61.83;23.93;;;;;;;-12.86;66.54;100035.59;1779606;79;21411;-78
2021/01/19 07:33:36;;;;;;;51.97;20.47;;;;;;;-13.03;67.24;100034.61;1822019;77;22558;-77
2021/01/19 07:36:04;;;;;;;60.48;23.15;;;;;;;-12.90;66.65;100037.23;1791934;78;21107;-78
2021/01/19 07:38:32;;;;;;;56.17;22.83;;;;;;;-12.75;66.29;100032.22;1792363;78;21120;-77
2021/01/19 07:41:00;;;;;;;65.75;23.15;;;;;;;-12.68;66.19;100025.56;1800954;78;21166;-78
2021/01/19 07:43:29;;;;;;;55.43;23.50;;;;;;;-12.58;65.98;100028.77;1790341;78;21451;-81
2021/01/19 07:45:56;;;;;;;60.33;23.92;;;;;;;-12.58;65.81;100031.87;1763557;80;21077;-74
2021/01/19 07:48:36;;;;;;;59.90;23.15;;;;;;;-12.56;65.76;100035.23;1790763;78;21140;-77
2021/01/19 07:51:17;;;;;;;53.50;22.30;;;;;;;-12.54;65.64;100031.53;1797587;78;21195;-83
2021/01/19 07:53:53;;;;;;;54.80;21.23;;;;;;;-12.64;65.94;100031.82;1801651;78;21105;-79
2021/01/19 07:56:28;;;;;;;54.77;22.23;;;;;;;-12.55;65.79;100032.50;1790693;80;21186;-80
2021/01/19 07:58:58;;;;;;;61.60;23.37;;;;;;;-12.48;65.35;100032.91;1802553;78;21580;-83
2021/01/19 08:01:30;;;;;;;56.37;22.13;;;;;;;-12.69;65.47;100032.62;1744801;81;21169;-88
2021/01/19 08:04:11;;;;;;;47.23;21.00;;;;;;;-12.85;65.97;100038.61;1725577;81;21134;-85
2021/01/19 08:06:39;;;;;;;60.30;21.20;;;;;;;-13.02;66.50;100038.44;1740568;81;21679;-76
2021/01/19 08:09:15;;;;;;;55.70;20.97;;;;;;;-12.98;66.94;100035.13;1758771;81;21120;-77
2021/01/19 08:11:44;;;;;;;59.03;21.20;;;;;;;-12.94;66.51;100039.23;1755750;82;21565;-76
2021/01/19 08:14:14;;;;;;;59.63;21.43;;;;;;;-12.78;66.57;100037.23;1749507;80;21113;-79
2021/01/19 08:16:43;;;;;;;53.98;21.27;;;;;;;-12.60;65.82;100038.58;1723357;81;21224;-79
2021/01/19 08:19:13;;;;;;;56.90;22.33;;;;;;;-12.70;66.05;100035.38;1720114;81;21121;-78
2021/01/19 08:21:53;;;;;;;58.50;22.33;;;;;;;-12.78;65.90;100033.74;1724691;81;21141;-74
2021/01/19 08:24:21;;;;;;;58.67;23.00;;;;;;;-12.82;66.52;100044.14;1746702;80;21536;-77
2021/01/19 08:26:50;;;;;;;58.93;23.23;;;;;;;-12.91;66.71;100037.70;1750218;82;21623;-77
2021/01/19 08:29:20;;;;;;;51.77;21.90;;;;;;;-12.93;67.06;100044.88;1752300;81;21319;-78
2021/01/19 08:32:00;;;;;;;56.37;22.53;;;;;;;-12.93;67.00;100035.66;1758351;80;21170;-77
2021/01/19 08:34:30;;;;;;;54.83;22.30;;;;;;;-12.91;67.03;100031.59;1764826;80;21224;-80
2021/01/19 08:37:01;;;;;;;54.83;22.00;;;;;;;-12.85;67.50;100035.12;1731070;81;21145;-78
2021/01/19 08:39:29;;;;;;;56.23;20.90;;;;;;;-12.81;66.86;100041.86;1738022;82;21206;-80
2021/01/19 08:41:58;;;;;;;51.30;21.07;;;;;;;-12.75;67.36;100047.56;1763540;81;21120;-82
2021/01/19 08:44:28;;;;;;;48.67;20.73;;;;;;;-12.69;66.74;100032.62;1765672;80;21106;-82
2021/01/19 08:46:55;;;;;;;51.42;21.10;;;;;;;-12.63;66.70;100030.03;1736956;81;21701;-78
2021/01/19 08:49:24;;;;;;;56.47;22.10;;;;;;;-12.76;66.23;100027.89;1761585;80;21588;-82
2021/01/19 08:51:53;;;;;;;;;;;;;;;-12.78;66.94;100031.11;1739639;81;21164;-83
2021/01/19 08:54:21;;;;;;;52.73;21.80;;;;;;;-12.62;67.59;100027.78;1736836;81;20511;-79
2021/01/19 08:56:49;;;;;;;58.38;21.02;;;;;;;-12.34;66.71;100021.73;1736399;81;21205;-77
2021/01/19 08:59:19;;;;;;;;;;;;;;;-12.08;66.26;100022.95;1739423;82;21235;-85
2021/01/19 09:01:52;;;;;;;49.57;21.37;;;;;;;-12.07;65.89;100031.25;1747324;81;20163;-79
2021/01/19 09:04:27;;;;;;;55.80;22.43;;;;;;;-12.00;65.00;100029.38;1737013;81;21128;-72
2021/01/19 09:07:10;;;;;;;55.97;23.27;;;;;;;-12.10;64.95;100032.78;1736193;81;21136;-80
2021/01/19 09:09:46;;;;;;;51.67;21.83;;;;;;;-12.13;65.35;100027.25;1742887;82;21120;-82
2021/01/19 09:12:20;;;;;;;58.23;22.47;;;;;;;-12.00;65.26;100028.52;1758728;80;21276;-75
2021/01/19 09:14:50;;;;;;;57.57;21.37;;;;;;;-11.98;65.25;100029.25;1755595;80;21545;-83
2021/01/19 09:17:26;;;;;;;57.30;22.80;;;;;;;-11.74;64.60;100031.42;1738219;81;21223;-77
2021/01/19 09:20:05;;;;;;;62.93;24.00;;;;;;;-11.50;64.26;100026.05;1739346;81;21156;-79
2021/01/19 09:22:36;;;;;;;61.00;23.33;;;;;;;-11.50;63.83;100033.50;1759404;80;21534;-84
2021/01/19 09:25:05;;;;;;;63.73;23.83;;;;;;;-11.50;64.18;100037.47;1755461;80;21145;-86
2021/01/19 09:27:35;;;;;;;59.97;23.90;;;;;;;-11.45;64.23;100024.77;1755310;80;21290;-89
2021/01/19 09:30:10;;;;;;;55.17;22.37;;;;;;;-11.46;63.69;100034.13;1747715;81;21117;-78
2021/01/19 09:32:42;;;;;;;58.33;22.20;;;;;;;-11.55;63.48;100036.97;1756976;80;21161;-78
2021/01/19 09:35:12;;;;;;;57.17;21.60;;;;;;;-11.68;63.77;100040.18;1731743;82;21273;-78
2021/01/19 09:37:41;;;;;;;58.17;23.07;;;;;;;-11.59;64.05;100038.16;1727897;82;21210;-79
2021/01/19 09:40:09;;;;;;;54.33;24.20;;;;;;;-11.50;63.04;100040.58;1742770;80;21192;-77
2021/01/19 09:42:41;;;;;;;59.43;22.77;;;;;;;-11.60;63.84;100036.47;1736878;82;21141;-78
2021/01/19 09:45:10;;;;;;;53.17;21.50;;;;;;;-11.45;63.79;100026.55;1747454;81;21141;-88
2021/01/19 09:47:40;;;;;;;50.67;21.80;;;;;;;-11.25;63.27;100033.81;1750826;80;21183;-86
2021/01/19 09:50:10;;;;;;;55.47;22.33;;;;;;;-11.12;63.21;100026.64;1736410;81;21574;-88
2021/01/19 09:52:44;;;;;;;59.90;23.13;;;;;;;-10.97;63.31;100035.19;1737599;82;21138;-87
2021/01/19 09:55:14;;;;;;;60.20;23.90;;;;;;;-10.89;61.78;100033.64;1740782;81;21173;-89
2021/01/19 09:57:43;;;;;;;57.17;22.83;;;;;;;-11.00;61.89;100037.11;1753897;81;21414;-87
2021/01/19 10:00:11;;;;;;;58.07;23.67;;;;;;;-11.15;62.50;100036.11;1746819;81;21141;-87
2021/01/19 10:02:41;;;;;;;61.73;23.43;;;;;;;-11.24;63.45;100025.79;1737695;81;21170;-86
2021/01/19 10:05:10;;;;;;;58.40;22.47;;;;;;;-11.08;63.83;100033.39;1737770;81;21669;-86
2021/01/19 10:07:38;;;;;;;52.43;20.87;;;;;;;-11.03;63.31;100036.02;1737463;82;21568;-84
2021/01/19 10:10:15;;;;;;;55.55;20.92;;;;;;;-11.10;63.81;100035.28;1738110;81;21654;-84
2021/01/19 10:12:43;;;;;;;48.00;20.73;;;;;;;-11.14;63.80;100030.73;1736298;80;21145;-86
2021/01/19 10:15:14;;;;;;;55.33;21.82;;;;;;;-11.16;63.55;100030.02;1752956;80;21198;-88
2021/01/19 10:17:42;;;;;;;48.77;20.83;;;;;;;-11.19;64.01;100028.92;1752375;80;22384;-81
2021/01/19 10:20:14;;;;;;;52.65;20.50;;;;;;;-11.07;63.23;100021.38;1782929;80;21675;-86
2021/01/19 10:22:44;;;;;;;52.47;19.77;;;;;;;-11.14;62.67;100018.00;1779540;80;21141;-74
2021/01/19 10:25:13;;;;;;;48.73;20.23;;;;;;;-11.35;63.56;100023.11;1751805;80;21168;-76
2021/01/19 10:27:44;;;;;;;50.53;20.43;;;;;;;-11.31;63.59;100024.58;1752024;80;21153;-78
2021/01/19 10:30:12;;;;;;;53.83;22.13;;;;;;;-11.22;63.07;100022.55;1780320;80;21128;-78
2021/01/19 10:32:44;;;;;;;51.53;20.83;;;;;;;-11.12;62.90;100024.84;1760353;80;21113;-78
2021/01/19 10:35:14;;;;;;;46.63;19.20;;;;;;;-11.31;63.09;100027.22;1755039;80;21173;-77
2021/01/19 10:37:52;;;;;;;50.73;21.10;;;;;;;-11.45;63.56;100033.16;1760377;80;21600;-80
2021/01/19 10:40:20;;;;;;;47.63;20.10;;;;;;;-11.52;63.91;100025.34;1756168;80;21180;-82
2021/01/19 10:42:48;;;;;;;46.70;18.85;;;;;;;-11.37;63.73;100032.95;1751823;80;21134;-83
2021/01/19 10:45:25;;;;;;;51.53;20.23;;;;;;;-11.23;63.25;100027.45;1752916;80;21121;-77
2021/01/19 10:47:53;;;;;;;47.43;21.20;;;;;;;-11.08;62.96;100023.64;1759233;80;21213;-78
2021/01/19 10:50:29;;;;;;;50.37;19.60;;;;;;;-10.92;63.17;100029.06;1750927;82;21128;-77
2021/01/19 10:53:05;;;;;;;49.77;20.20;;;;;;;-10.89;62.64;100024.87;1752262;80;21176;-81
2021/01/19 10:55:33;;;;;;;45.57;19.73;;;;;;;-10.85;61.81;100030.30;1751026;80;21553;-82
2021/01/19 10:58:03;;;;;;;49.60;18.87;;;;;;;-11.05;61.12;100027.84;1750251;80;21242;-84
2021/01/19 11:00:34;;;;;;;47.33;19.70;;;;;;;-11.40;62.05;100030.53;1750755;80;21205;-82
2021/01/19 11:03:02;;;;;;;49.77;19.87;;;;;;;-11.50;62.67;100016.34;1763193;80;21187;-77
2021/01/19 11:05:30;;;;;;;;;;;;;;;-11.43;62.82;100024.16;1768007;80;21192;-79
2021/01/19 11:07:58;;;;;;;53.00;19.20;;;;;;;-11.39;62.85;100021.67;1749584;80;20189;-77
2021/01/19 11:10:26;;;;;;;42.67;17.43;;;;;;;-11.32;63.28;100022.88;1730395;82;21166;-76
2021/01/19 11:12:55;;;;;;;52.00;19.50;;;;;;;-11.18;63.02;100022.66;1748532;81;21125;-76
2021/01/19 11:15:23;;;;;;;45.98;18.73;;;;;;;-11.03;62.75;100024.13;1754348;80;21110;-80
2021/01/19 11:17:51;;;;;;;49.23;18.92;;;;;;;-10.88;62.12;100027.89;1785273;80;21167;-78
2021/01/19 11:20:20;;;;;;;49.00;19.97;;;;;;;-11.00;61.78;100018.61;1756348;80;21131;-83
2021/01/19 11:22:48;;;;;;;;;;;;;;;-10.97;61.52;100018.00;1758407;82;21141;-82
2021/01/19 11:25:17;;;;;;;45.15;17.95;;;;;;;-10.87;61.64;100020.30;1760030;80;20546;-81
2021/01/19 11:27:50;;;;;;;53.60;19.87;;;;;;;-11.00;61.70;100018.61;1739447;81;21145;-82
2021/01/19 11:30:19;;;;;;;48.47;18.77;;;;;;;-10.91;62.06;100017.55;1755914;81;21133;-80
2021/01/19 11:32:46;;;;;;;46.80;17.97;;;;;;;-10.77;61.32;100021.27;1763082;80;21119;-80
2021/01/19 11:35:15;;;;;;;52.97;20.07;;;;;;;-10.72;61.09;100023.06;1736657;81;21141;-78
2021/01/19 11:37:43;;;;;;;47.85;20.57;;;;;;;-11.01;61.37;100022.23;1755295;80;21121;-76
2021/01/19 11:40:12;;;;;;;49.27;19.42;;;;;;;-11.05;62.20;100018.12;1754567;80;21200;-74
2021/01/19 11:42:40;;;;;;;50.77;19.73;;;;;;;-10.95;62.41;100028.82;1764606;80;21160;-80